sensor_id;sensor_type;location;lat;lon;timestamp;pressure;altitude;pressure_sealevel;temperature
19102;BMP280;9683;49.028;12.064;2023-04-03T00:00:00;97879.81;;;7.59
19102;BMP280;9683;49.028;12.064;2023-04-03T00:02:26;97886.44;;;7.49
19102;BMP280;9683;49.028;12.064;2023-04-03T00:04:53;97880.09;;;7.50
19102;BMP280;9683;49.028;12.064;2023-04-03T00:07:21;97883.41;;;7.52
19102;BMP280;9683;49.028;12.064;2023-04-03T00:09:48;97875.03;;;7.48
19102;BMP280;9683;49.028;12.064;2023-04-03T00:12:15;97884.78;;;7.48
19102;BMP280;9683;49.028;12.064;2023-04-03T00:14:41;97887.59;;;7.46
19102;BMP280;9683;49.028;12.064;2023-04-03T00:17:08;97881.69;;;7.44
19102;BMP280;9683;49.028;12.064;2023-04-03T00:19:35;97882.88;;;7.42
19102;BMP280;9683;49.028;12.064;2023-04-03T00:22:01;97883.06;;;7.40
19102;BMP280;9683;49.028;12.064;2023-04-03T00:24:29;97890.75;;;7.35
19102;BMP280;9683;49.028;12.064;2023-04-03T00:26:56;97889.47;;;7.31
19102;BMP280;9683;49.028;12.064;2023-04-03T00:29:23;97896.97;;;7.27
19102;BMP280;9683;49.028;12.064;2023-04-03T00:31:49;97890.66;;;7.28
19102;BMP280;9683;49.028;12.064;2023-04-03T00:34:16;97890.03;;;7.26
19102;BMP280;9683;49.028;12.064;2023-04-03T00:36:43;97885.13;;;7.23
19102;BMP280;9683;49.028;12.064;2023-04-03T00:39:09;97885.69;;;7.19
19102;BMP280;9683;49.028;12.064;2023-04-03T00:41:37;97898.25;;;7.17
19102;BMP280;9683;49.028;12.064;2023-04-03T00:44:19;97883.75;;;7.13
19102;BMP280;9683;49.028;12.064;2023-04-03T00:46:46;97895.72;;;7.09
19102;BMP280;9683;49.028;12.064;2023-04-03T00:49:13;97877.13;;;7.02
19102;BMP280;9683;49.028;12.064;2023-04-03T00:51:39;97890.53;;;7.01
19102;BMP280;9683;49.028;12.064;2023-04-03T00:54:07;97883.25;;;7.03
19102;BMP280;9683;49.028;12.064;2023-04-03T00:56:35;97897.25;;;7.03
19102;BMP280;9683;49.028;12.064;2023-04-03T00:59:07;97892.34;;;7.00
19102;BMP280;9683;49.028;12.064;2023-04-03T01:01:35;97885.41;;;6.99
19102;BMP280;9683;49.028;12.064;2023-04-03T01:04:04;97886.88;;;7.02
19102;BMP280;9683;49.028;12.064;2023-04-03T01:06:34;97885.06;;;7.02
19102;BMP280;9683;49.028;12.064;2023-04-03T01:09:01;97889.88;;;6.99
19102;BMP280;9683;49.028;12.064;2023-04-03T01:11:28;97890.25;;;6.96
19102;BMP280;9683;49.028;12.064;2023-04-03T01:13:55;97889.63;;;6.94
19102;BMP280;9683;49.028;12.064;2023-04-03T01:16:23;97886.72;;;6.88
19102;BMP280;9683;49.028;12.064;2023-04-03T01:18:50;97883.72;;;6.77
19102;BMP280;9683;49.028;12.064;2023-04-03T01:21:45;97879.78;;;6.73
19102;BMP280;9683;49.028;12.064;2023-04-03T01:24:30;97884.16;;;6.66
19102;BMP280;9683;49.028;12.064;2023-04-03T01:26:59;97885.34;;;6.63
19102;BMP280;9683;49.028;12.064;2023-04-03T01:29:26;97889.19;;;6.61
19102;BMP280;9683;49.028;12.064;2023-04-03T01:31:55;97891.53;;;6.56
19102;BMP280;9683;49.028;12.064;2023-04-03T01:34:23;97887.63;;;6.52
19102;BMP280;9683;49.028;12.064;2023-04-03T01:36:50;97895.53;;;6.52
19102;BMP280;9683;49.028;12.064;2023-04-03T01:39:17;97894.69;;;6.36
19102;BMP280;9683;49.028;12.064;2023-04-03T01:41:44;97891.97;;;6.30
19102;BMP280;9683;49.028;12.064;2023-04-03T01:44:11;97899.66;;;6.17
19102;BMP280;9683;49.028;12.064;2023-04-03T01:46:38;97899.09;;;6.07
19102;BMP280;9683;49.028;12.064;2023-04-03T01:49:09;97906.66;;;6.10
19102;BMP280;9683;49.028;12.064;2023-04-03T01:51:36;97905.84;;;6.09
19102;BMP280;9683;49.028;12.064;2023-04-03T01:54:02;97892.66;;;6.09
19102;BMP280;9683;49.028;12.064;2023-04-03T01:56:29;97896.44;;;6.07
19102;BMP280;9683;49.028;12.064;2023-04-03T01:58:56;97903.72;;;6.05
19102;BMP280;9683;49.028;12.064;2023-04-03T02:01:22;97897.47;;;6.06
19102;BMP280;9683;49.028;12.064;2023-04-03T02:03:51;97898.09;;;6.08
19102;BMP280;9683;49.028;12.064;2023-04-03T02:06:19;97903.84;;;6.11
19102;BMP280;9683;49.028;12.064;2023-04-03T02:08:45;97904.84;;;6.10
19102;BMP280;9683;49.028;12.064;2023-04-03T02:11:12;97902.81;;;5.97
19102;BMP280;9683;49.028;12.064;2023-04-03T02:13:39;97904.34;;;5.92
19102;BMP280;9683;49.028;12.064;2023-04-03T02:16:07;97901.22;;;5.88
19102;BMP280;9683;49.028;12.064;2023-04-03T02:18:33;97897.06;;;5.86
19102;BMP280;9683;49.028;12.064;2023-04-03T02:21:00;97901.53;;;5.85
19102;BMP280;9683;49.028;12.064;2023-04-03T02:23:28;97891.66;;;5.87
19102;BMP280;9683;49.028;12.064;2023-04-03T02:26:03;97910.47;;;5.84
19102;BMP280;9683;49.028;12.064;2023-04-03T02:28:29;97901.78;;;5.76
19102;BMP280;9683;49.028;12.064;2023-04-03T02:30:56;97912.66;;;5.73
19102;BMP280;9683;49.028;12.064;2023-04-03T02:33:23;97907.13;;;5.68
19102;BMP280;9683;49.028;12.064;2023-04-03T02:35:52;97903.19;;;5.64
19102;BMP280;9683;49.028;12.064;2023-04-03T02:38:19;97905.84;;;5.55
19102;BMP280;9683;49.028;12.064;2023-04-03T02:40:47;97903.72;;;5.59
19102;BMP280;9683;49.028;12.064;2023-04-03T02:43:14;97904.56;;;5.51
19102;BMP280;9683;49.028;12.064;2023-04-03T02:45:40;97907.88;;;5.53
19102;BMP280;9683;49.028;12.064;2023-04-03T02:48:07;97906.03;;;5.54
19102;BMP280;9683;49.028;12.064;2023-04-03T02:50:34;97907.56;;;5.48
19102;BMP280;9683;49.028;12.064;2023-04-03T02:53:00;97901.97;;;5.43
19102;BMP280;9683;49.028;12.064;2023-04-03T02:55:27;97912.84;;;5.48
19102;BMP280;9683;49.028;12.064;2023-04-03T02:57:55;97907.03;;;5.53
19102;BMP280;9683;49.028;12.064;2023-04-03T03:00:22;97904.59;;;5.43
19102;BMP280;9683;49.028;12.064;2023-04-03T03:02:48;97905.78;;;5.41
19102;BMP280;9683;49.028;12.064;2023-04-03T03:05:15;97905.63;;;5.42
19102;BMP280;9683;49.028;12.064;2023-04-03T03:07:42;97904.44;;;5.45
19102;BMP280;9683;49.028;12.064;2023-04-03T03:10:09;97892.59;;;5.41
19102;BMP280;9683;49.028;12.064;2023-04-03T03:12:35;97904.81;;;5.42
19102;BMP280;9683;49.028;12.064;2023-04-03T03:15:04;97906.25;;;5.44
19102;BMP280;9683;49.028;12.064;2023-04-03T03:17:31;97910.66;;;5.52
19102;BMP280;9683;49.028;12.064;2023-04-03T03:19:57;97902.88;;;5.59
19102;BMP280;9683;49.028;12.064;2023-04-03T03:22:25;97898.06;;;5.62
19102;BMP280;9683;49.028;12.064;2023-04-03T03:24:52;97899.13;;;5.53
19102;BMP280;9683;49.028;12.064;2023-04-03T03:27:19;97900.78;;;5.54
19102;BMP280;9683;49.028;12.064;2023-04-03T03:29:46;97908.50;;;5.55
19102;BMP280;9683;49.028;12.064;2023-04-03T03:32:13;97900.00;;;5.45
19102;BMP280;9683;49.028;12.064;2023-04-03T03:34:40;97906.63;;;5.41
19102;BMP280;9683;49.028;12.064;2023-04-03T03:37:07;97900.41;;;5.34
19102;BMP280;9683;49.028;12.064;2023-04-03T03:39:33;97914.78;;;5.24
19102;BMP280;9683;49.028;12.064;2023-04-03T03:42:00;97902.25;;;5.26
19102;BMP280;9683;49.028;12.064;2023-04-03T03:44:27;97901.72;;;5.30
19102;BMP280;9683;49.028;12.064;2023-04-03T03:46:54;97909.31;;;5.33
19102;BMP280;9683;49.028;12.064;2023-04-03T03:49:22;97906.97;;;5.38
19102;BMP280;9683;49.028;12.064;2023-04-03T03:51:49;97896.22;;;5.40
19102;BMP280;9683;49.028;12.064;2023-04-03T03:54:17;97903.25;;;5.47
19102;BMP280;9683;49.028;12.064;2023-04-03T03:56:43;97901.13;;;5.51
19102;BMP280;9683;49.028;12.064;2023-04-03T03:59:11;97904.28;;;5.46
19102;BMP280;9683;49.028;12.064;2023-04-03T04:01:38;97902.31;;;5.40
19102;BMP280;9683;49.028;12.064;2023-04-03T04:04:05;97904.84;;;5.34
19102;BMP280;9683;49.028;12.064;2023-04-03T04:06:33;97899.56;;;5.34
19102;BMP280;9683;49.028;12.064;2023-04-03T04:09:00;97914.22;;;5.36
19102;BMP280;9683;49.028;12.064;2023-04-03T04:11:26;97909.31;;;5.33
19102;BMP280;9683;49.028;12.064;2023-04-03T04:13:53;97901.09;;;5.28
19102;BMP280;9683;49.028;12.064;2023-04-03T04:16:20;97902.25;;;5.26
19102;BMP280;9683;49.028;12.064;2023-04-03T04:18:46;97907.06;;;5.14
19102;BMP280;9683;49.028;12.064;2023-04-03T04:21:13;97907.41;;;5.11
19102;BMP280;9683;49.028;12.064;2023-04-03T04:23:41;97905.44;;;5.13
19102;BMP280;9683;49.028;12.064;2023-04-03T04:26:07;97916.63;;;5.15
19102;BMP280;9683;49.028;12.064;2023-04-03T04:28:34;97910.22;;;5.09
19102;BMP280;9683;49.028;12.064;2023-04-03T04:31:01;97916.03;;;5.05
19102;BMP280;9683;49.028;12.064;2023-04-03T04:33:27;97918.34;;;5.00
19102;BMP280;9683;49.028;12.064;2023-04-03T04:35:54;97913.09;;;5.00
19102;BMP280;9683;49.028;12.064;2023-04-03T04:38:21;97919.22;;;4.92
19102;BMP280;9683;49.028;12.064;2023-04-03T04:40:49;97915.56;;;4.93
19102;BMP280;9683;49.028;12.064;2023-04-03T04:43:16;97920.81;;;5.01
19102;BMP280;9683;49.028;12.064;2023-04-03T04:45:42;97921.31;;;5.05
19102;BMP280;9683;49.028;12.064;2023-04-03T04:48:09;97914.03;;;5.07
19102;BMP280;9683;49.028;12.064;2023-04-03T04:50:35;97919.47;;;5.05
19102;BMP280;9683;49.028;12.064;2023-04-03T04:53:02;97922.31;;;4.96
19102;BMP280;9683;49.028;12.064;2023-04-03T04:55:29;97918.06;;;4.87
19102;BMP280;9683;49.028;12.064;2023-04-03T04:57:57;97922.84;;;4.91
19102;BMP280;9683;49.028;12.064;2023-04-03T05:00:24;97918.06;;;4.87
19102;BMP280;9683;49.028;12.064;2023-04-03T05:02:51;97908.88;;;4.75
19102;BMP280;9683;49.028;12.064;2023-04-03T05:05:17;97922.88;;;4.83
19102;BMP280;9683;49.028;12.064;2023-04-03T05:07:44;97925.81;;;4.80
19102;BMP280;9683;49.028;12.064;2023-04-03T05:10:11;97918.09;;;4.79
19102;BMP280;9683;49.028;12.064;2023-04-03T05:12:37;97921.88;;;4.76
19102;BMP280;9683;49.028;12.064;2023-04-03T05:15:07;97926.63;;;4.81
19102;BMP280;9683;49.028;12.064;2023-04-03T05:17:33;97925.19;;;4.70
19102;BMP280;9683;49.028;12.064;2023-04-03T05:20:00;97929.31;;;4.73
19102;BMP280;9683;49.028;12.064;2023-04-03T05:22:27;97931.44;;;4.77
19102;BMP280;9683;49.028;12.064;2023-04-03T05:24:54;97931.44;;;4.77
19102;BMP280;9683;49.028;12.064;2023-04-03T05:27:20;97932.72;;;4.81
19102;BMP280;9683;49.028;12.064;2023-04-03T05:29:48;97932.38;;;4.84
19102;BMP280;9683;49.028;12.064;2023-04-03T05:32:16;97934.00;;;4.93
19102;BMP280;9683;49.028;12.064;2023-04-03T05:34:43;97938.97;;;4.96
19102;BMP280;9683;49.028;12.064;2023-04-03T05:37:10;97939.09;;;5.03
19102;BMP280;9683;49.028;12.064;2023-04-03T05:39:37;97931.03;;;5.04
19102;BMP280;9683;49.028;12.064;2023-04-03T05:42:05;97933.16;;;5.01
19102;BMP280;9683;49.028;12.064;2023-04-03T05:44:32;97933.00;;;5.02
19102;BMP280;9683;49.028;12.064;2023-04-03T05:46:59;97933.50;;;4.98
19102;BMP280;9683;49.028;12.064;2023-04-03T05:49:27;97927.25;;;4.99
19102;BMP280;9683;49.028;12.064;2023-04-03T05:51:54;97938.13;;;4.96
19102;BMP280;9683;49.028;12.064;2023-04-03T05:54:24;97929.50;;;5.10
19102;BMP280;9683;49.028;12.064;2023-04-03T05:56:51;97933.69;;;4.96
19102;BMP280;9683;49.028;12.064;2023-04-03T05:59:19;97935.13;;;5.07
19102;BMP280;9683;49.028;12.064;2023-04-03T06:01:45;97941.84;;;5.09
19102;BMP280;9683;49.028;12.064;2023-04-03T06:04:12;97942.50;;;5.20
19102;BMP280;9683;49.028;12.064;2023-04-03T06:06:45;97950.75;;;5.17
19102;BMP280;9683;49.028;12.064;2023-04-03T06:09:13;97945.28;;;5.18
19102;BMP280;9683;49.028;12.064;2023-04-03T06:11:39;97946.34;;;5.01
19102;BMP280;9683;49.028;12.064;2023-04-03T06:14:07;97954.53;;;5.14
19102;BMP280;9683;49.028;12.064;2023-04-03T06:16:33;97944.66;;;5.16
19102;BMP280;9683;49.028;12.064;2023-04-03T06:19:00;97950.72;;;5.25
19102;BMP280;9683;49.028;12.064;2023-04-03T06:21:27;97944.94;;;5.29
19102;BMP280;9683;49.028;12.064;2023-04-03T06:23:55;97936.81;;;5.31
19102;BMP280;9683;49.028;12.064;2023-04-03T06:26:22;97941.41;;;5.37
19102;BMP280;9683;49.028;12.064;2023-04-03T06:28:49;97937.09;;;5.44
19102;BMP280;9683;49.028;12.064;2023-04-03T06:31:15;97949.47;;;5.43
19102;BMP280;9683;49.028;12.064;2023-04-03T06:33:42;97952.56;;;5.55
19102;BMP280;9683;49.028;12.064;2023-04-03T06:36:10;97952.78;;;5.68
19102;BMP280;9683;49.028;12.064;2023-04-03T06:38:38;97956.69;;;5.80
19102;BMP280;9683;49.028;12.064;2023-04-03T06:41:06;97966.72;;;5.93
19102;BMP280;9683;49.028;12.064;2023-04-03T06:43:32;97971.72;;;6.03
19102;BMP280;9683;49.028;12.064;2023-04-03T06:45:59;97974.97;;;6.13
19102;BMP280;9683;49.028;12.064;2023-04-03T06:48:26;97973.91;;;6.22
19102;BMP280;9683;49.028;12.064;2023-04-03T06:50:53;97973.03;;;6.29
19102;BMP280;9683;49.028;12.064;2023-04-03T06:53:20;97974.78;;;6.37
19102;BMP280;9683;49.028;12.064;2023-04-03T06:55:47;97973.88;;;6.44
19102;BMP280;9683;49.028;12.064;2023-04-03T06:58:15;97975.28;;;6.55
19102;BMP280;9683;49.028;12.064;2023-04-03T07:00:42;97975.59;;;6.60
19102;BMP280;9683;49.028;12.064;2023-04-03T07:03:09;97993.19;;;6.68
19102;BMP280;9683;49.028;12.064;2023-04-03T07:05:37;97979.44;;;6.72
19102;BMP280;9683;49.028;12.064;2023-04-03T07:08:04;97980.72;;;6.76
19102;BMP280;9683;49.028;12.064;2023-04-03T07:10:31;97995.22;;;6.80
19102;BMP280;9683;49.028;12.064;2023-04-03T07:12:58;97989.38;;;6.85
19102;BMP280;9683;49.028;12.064;2023-04-03T07:15:26;98002.53;;;6.93
19102;BMP280;9683;49.028;12.064;2023-04-03T07:17:53;98000.50;;;6.95
19102;BMP280;9683;49.028;12.064;2023-04-03T07:20:20;98006.63;;;6.96
19102;BMP280;9683;49.028;12.064;2023-04-03T07:22:47;98004.63;;;6.98
19102;BMP280;9683;49.028;12.064;2023-04-03T07:25:14;98009.38;;;7.02
19102;BMP280;9683;49.028;12.064;2023-04-03T07:27:41;98016.56;;;7.08
19102;BMP280;9683;49.028;12.064;2023-04-03T07:30:09;98016.03;;;7.13
19102;BMP280;9683;49.028;12.064;2023-04-03T07:32:37;98012.03;;;7.17
19102;BMP280;9683;49.028;12.064;2023-04-03T07:35:04;98020.41;;;7.20
19102;BMP280;9683;49.028;12.064;2023-04-03T07:37:31;98024.72;;;7.21
19102;BMP280;9683;49.028;12.064;2023-04-03T07:39:57;98016.94;;;7.20
19102;BMP280;9683;49.028;12.064;2023-04-03T07:42:24;98036.75;;;7.24
19102;BMP280;9683;49.028;12.064;2023-04-03T07:44:52;98033.56;;;7.28
19102;BMP280;9683;49.028;12.064;2023-04-03T07:47:19;98037.31;;;7.34
19102;BMP280;9683;49.028;12.064;2023-04-03T07:49:47;98032.47;;;7.37
19102;BMP280;9683;49.028;12.064;2023-04-03T07:52:14;98035.75;;;7.40
19102;BMP280;9683;49.028;12.064;2023-04-03T07:54:41;98049.28;;;7.45
19102;BMP280;9683;49.028;12.064;2023-04-03T07:57:08;98039.97;;;7.49
19102;BMP280;9683;49.028;12.064;2023-04-03T07:59:35;98046.53;;;7.53
19102;BMP280;9683;49.028;12.064;2023-04-03T08:02:01;98047.00;;;7.56
19102;BMP280;9683;49.028;12.064;2023-04-03T08:04:30;98032.38;;;7.60
19102;BMP280;9683;49.028;12.064;2023-04-03T08:06:58;98042.03;;;7.68
19102;BMP280;9683;49.028;12.064;2023-04-03T08:09:25;98035.91;;;7.67
19102;BMP280;9683;49.028;12.064;2023-04-03T08:11:51;98042.69;;;7.70
19102;BMP280;9683;49.028;12.064;2023-04-03T08:14:18;98039.00;;;7.71
19102;BMP280;9683;49.028;12.064;2023-04-03T08:16:46;98051.09;;;7.73
19102;BMP280;9683;49.028;12.064;2023-04-03T08:19:13;98026.03;;;7.76
19102;BMP280;9683;49.028;12.064;2023-04-03T08:21:41;98037.91;;;7.80
19102;BMP280;9683;49.028;12.064;2023-04-03T08:24:09;98031.63;;;7.81
19102;BMP280;9683;49.028;12.064;2023-04-03T08:26:35;98029.41;;;7.84
19102;BMP280;9683;49.028;12.064;2023-04-03T08:29:02;98035.97;;;7.89
19102;BMP280;9683;49.028;12.064;2023-04-03T08:31:29;98031.13;;;7.92
19102;BMP280;9683;49.028;12.064;2023-04-03T08:33:56;98032.41;;;7.96
19102;BMP280;9683;49.028;12.064;2023-04-03T08:36:28;98034.69;;;7.99
19102;BMP280;9683;49.028;12.064;2023-04-03T08:38:56;98023.88;;;8.01
19102;BMP280;9683;49.028;12.064;2023-04-03T08:41:29;98024.72;;;8.01
19102;BMP280;9683;49.028;12.064;2023-04-03T08:46:51;98032.09;;;8.06
19102;BMP280;9683;49.028;12.064;2023-04-03T08:49:26;98030.28;;;8.06
19102;BMP280;9683;49.028;12.064;2023-04-03T08:51:54;98030.47;;;8.05
19102;BMP280;9683;49.028;12.064;2023-04-03T08:54:29;98020.50;;;8.07
19102;BMP280;9683;49.028;12.064;2023-04-03T08:57:00;98031.38;;;8.12
19102;BMP280;9683;49.028;12.064;2023-04-03T08:59:32;98037.22;;;8.07
19102;BMP280;9683;49.028;12.064;2023-04-03T09:02:01;98038.41;;;8.05
19102;BMP280;9683;49.028;12.064;2023-04-03T09:04:32;98048.00;;;8.06
19102;BMP280;9683;49.028;12.064;2023-04-03T09:07:04;98043.34;;;8.08
19102;BMP280;9683;49.028;12.064;2023-04-03T09:09:36;98057.88;;;8.12
19102;BMP280;9683;49.028;12.064;2023-04-03T09:12:15;98057.31;;;8.16
19102;BMP280;9683;49.028;12.064;2023-04-03T09:14:49;98067.28;;;8.14
19102;BMP280;9683;49.028;12.064;2023-04-03T09:17:25;98059.97;;;8.16
19102;BMP280;9683;49.028;12.064;2023-04-03T09:19:57;98056.94;;;8.19
19102;BMP280;9683;49.028;12.064;2023-04-03T09:22:26;98062.41;;;8.18
19102;BMP280;9683;49.028;12.064;2023-04-03T09:24:58;98059.59;;;8.19
19102;BMP280;9683;49.028;12.064;2023-04-03T09:27:26;98061.59;;;8.17
19102;BMP280;9683;49.028;12.064;2023-04-03T09:29:54;98050.16;;;8.17
19102;BMP280;9683;49.028;12.064;2023-04-03T09:32:26;98060.59;;;8.18
19102;BMP280;9683;49.028;12.064;2023-04-03T09:34:56;98063.22;;;8.18
19102;BMP280;9683;49.028;12.064;2023-04-03T09:37:39;98060.84;;;8.23
19102;BMP280;9683;49.028;12.064;2023-04-03T09:40:33;98055.00;;;8.28
19102;BMP280;9683;49.028;12.064;2023-04-03T09:43:20;98059.75;;;8.33
19102;BMP280;9683;49.028;12.064;2023-04-03T09:45:48;98061.03;;;8.37
19102;BMP280;9683;49.028;12.064;2023-04-03T09:48:16;98053.94;;;8.44
19102;BMP280;9683;49.028;12.064;2023-04-03T09:51:01;98061.16;;;8.50
19102;BMP280;9683;49.028;12.064;2023-04-03T09:53:34;98065.53;;;8.57
19102;BMP280;9683;49.028;12.064;2023-04-03T09:56:04;98060.25;;;8.64
19102;BMP280;9683;49.028;12.064;2023-04-03T09:58:39;98060.34;;;8.70
19102;BMP280;9683;49.028;12.064;2023-04-03T10:01:21;98060.22;;;8.79
19102;BMP280;9683;49.028;12.064;2023-04-03T10:04:03;98059.41;;;8.85
19102;BMP280;9683;49.028;12.064;2023-04-03T10:06:32;98053.53;;;8.89
19102;BMP280;9683;49.028;12.064;2023-04-03T10:09:05;98046.84;;;8.93
19102;BMP280;9683;49.028;12.064;2023-04-03T10:11:32;98045.66;;;8.96
19102;BMP280;9683;49.028;12.064;2023-04-03T10:14:02;98039.13;;;8.98
19102;BMP280;9683;49.028;12.064;2023-04-03T10:16:35;98044.47;;;9.05
19102;BMP280;9683;49.028;12.064;2023-04-03T10:19:14;98037.41;;;9.12
19102;BMP280;9683;49.028;12.064;2023-04-03T10:21:48;98041.09;;;9.17
19102;BMP280;9683;49.028;12.064;2023-04-03T10:24:22;98034.00;;;9.25
19102;BMP280;9683;49.028;12.064;2023-04-03T10:26:56;98030.56;;;9.31
19102;BMP280;9683;49.028;12.064;2023-04-03T10:29:38;98030.81;;;9.36
19102;BMP280;9683;49.028;12.064;2023-04-03T10:32:22;98028.41;;;9.41
19102;BMP280;9683;49.028;12.064;2023-04-03T10:34:58;98033.31;;;9.44
19102;BMP280;9683;49.028;12.064;2023-04-03T10:37:30;98022.31;;;9.47
19102;BMP280;9683;49.028;12.064;2023-04-03T10:40:05;98022.53;;;9.52
19102;BMP280;9683;49.028;12.064;2023-04-03T10:42:43;98028.47;;;9.54
19102;BMP280;9683;49.028;12.064;2023-04-03T10:45:24;98026.25;;;9.57
19102;BMP280;9683;49.028;12.064;2023-04-03T10:48:01;98022.16;;;9.61
19102;BMP280;9683;49.028;12.064;2023-04-03T10:50:37;98028.31;;;9.62
19102;BMP280;9683;49.028;12.064;2023-04-03T10:53:14;98027.28;;;9.63
19102;BMP280;9683;49.028;12.064;2023-04-03T10:55:50;98025.47;;;9.63
19102;BMP280;9683;49.028;12.064;2023-04-03T10:58:25;98010.53;;;9.62
19102;BMP280;9683;49.028;12.064;2023-04-03T11:01:00;98017.03;;;9.60
19102;BMP280;9683;49.028;12.064;2023-04-03T11:03:31;98028.50;;;9.60
19102;BMP280;9683;49.028;12.064;2023-04-03T11:06:02;98027.06;;;9.58
19102;BMP280;9683;49.028;12.064;2023-04-03T11:08:33;98020.25;;;9.49
19102;BMP280;9683;49.028;12.064;2023-04-03T11:11:06;98015.13;;;9.47
19102;BMP280;9683;49.028;12.064;2023-04-03T11:13:38;98008.41;;;9.51
19102;BMP280;9683;49.028;12.064;2023-04-03T11:16:08;98025.41;;;9.57
19102;BMP280;9683;49.028;12.064;2023-04-03T11:18:37;98020.34;;;9.62
19102;BMP280;9683;49.028;12.064;2023-04-03T11:21:09;98015.44;;;9.65
19102;BMP280;9683;49.028;12.064;2023-04-03T11:23:39;98013.19;;;9.62
19102;BMP280;9683;49.028;12.064;2023-04-03T11:26:11;98010.69;;;9.54
19102;BMP280;9683;49.028;12.064;2023-04-03T11:28:40;98008.41;;;9.45
19102;BMP280;9683;49.028;12.064;2023-04-03T11:31:26;98009.47;;;9.23
19102;BMP280;9683;49.028;12.064;2023-04-03T11:34:02;98022.75;;;9.23
19102;BMP280;9683;49.028;12.064;2023-04-03T11:36:33;98003.19;;;9.30
19102;BMP280;9683;49.028;12.064;2023-04-03T11:39:13;98010.63;;;9.41
19102;BMP280;9683;49.028;12.064;2023-04-03T11:41:43;98000.25;;;9.53
19102;BMP280;9683;49.028;12.064;2023-04-03T11:44:30;98003.81;;;9.66
19102;BMP280;9683;49.028;12.064;2023-04-03T11:47:00;98007.94;;;9.76
19102;BMP280;9683;49.028;12.064;2023-04-03T11:49:52;97992.41;;;9.86
19102;BMP280;9683;49.028;12.064;2023-04-03T11:55:52;97983.03;;;9.90
19102;BMP280;9683;49.028;12.064;2023-04-03T11:58:24;97980.16;;;9.85
19102;BMP280;9683;49.028;12.064;2023-04-03T12:00:56;97985.31;;;9.93
19102;BMP280;9683;49.028;12.064;2023-04-03T12:09:27;97983.34;;;10.21
19102;BMP280;9683;49.028;12.064;2023-04-03T12:11:56;97981.75;;;10.27
19102;BMP280;9683;49.028;12.064;2023-04-03T12:14:25;97968.03;;;10.36
19102;BMP280;9683;49.028;12.064;2023-04-03T12:16:54;97972.94;;;10.46
19102;BMP280;9683;49.028;12.064;2023-04-03T12:19:35;97973.16;;;10.57
19102;BMP280;9683;49.028;12.064;2023-04-03T12:22:10;97966.00;;;10.58
19102;BMP280;9683;49.028;12.064;2023-04-03T12:24:38;97966.41;;;10.62
19102;BMP280;9683;49.028;12.064;2023-04-03T12:27:16;97980.13;;;10.72
19102;BMP280;9683;49.028;12.064;2023-04-03T12:29:49;97973.56;;;10.81
19102;BMP280;9683;49.028;12.064;2023-04-03T12:32:24;97977.66;;;10.90
19102;BMP280;9683;49.028;12.064;2023-04-03T12:35:05;97969.22;;;10.99
19102;BMP280;9683;49.028;12.064;2023-04-03T12:37:48;97971.09;;;11.06
19102;BMP280;9683;49.028;12.064;2023-04-03T12:40:25;97973.13;;;11.10
19102;BMP280;9683;49.028;12.064;2023-04-03T12:43:05;97965.94;;;11.17
19102;BMP280;9683;49.028;12.064;2023-04-03T12:45:41;97968.38;;;11.25
19102;BMP280;9683;49.028;12.064;2023-04-03T12:48:14;97957.28;;;11.35
19102;BMP280;9683;49.028;12.064;2023-04-03T12:50:45;97952.75;;;11.42
19102;BMP280;9683;49.028;12.064;2023-04-03T12:53:14;97952.75;;;11.42
19102;BMP280;9683;49.028;12.064;2023-04-03T12:55:42;97954.81;;;11.40
19102;BMP280;9683;49.028;12.064;2023-04-03T12:58:21;97956.22;;;11.42
19102;BMP280;9683;49.028;12.064;2023-04-03T13:00:59;97960.75;;;11.42
19102;BMP280;9683;49.028;12.064;2023-04-03T13:03:27;97962.38;;;11.43
19102;BMP280;9683;49.028;12.064;2023-04-03T13:05:58;97950.66;;;11.50
19102;BMP280;9683;49.028;12.064;2023-04-03T13:08:26;97955.75;;;11.59
19102;BMP280;9683;49.028;12.064;2023-04-03T13:10:56;97959.38;;;11.71
19102;BMP280;9683;49.028;12.064;2023-04-03T13:13:24;97962.66;;;11.79
19102;BMP280;9683;49.028;12.064;2023-04-03T13:15:53;97949.09;;;11.87
19102;BMP280;9683;49.028;12.064;2023-04-03T13:18:32;97948.84;;;11.95
19102;BMP280;9683;49.028;12.064;2023-04-03T13:21:04;97956.19;;;12.00
19102;BMP280;9683;49.028;12.064;2023-04-03T13:23:32;97954.09;;;12.09
19102;BMP280;9683;49.028;12.064;2023-04-03T13:26:01;97958.59;;;12.15
19102;BMP280;9683;49.028;12.064;2023-04-03T13:28:30;97954.41;;;12.25
19102;BMP280;9683;49.028;12.064;2023-04-03T13:31:04;97940.38;;;12.36
19102;BMP280;9683;49.028;12.064;2023-04-03T13:33:34;97943.44;;;12.40
19102;BMP280;9683;49.028;12.064;2023-04-03T13:36:06;97961.19;;;12.28
19102;BMP280;9683;49.028;12.064;2023-04-03T13:38:34;97951.97;;;12.24
19102;BMP280;9683;49.028;12.064;2023-04-03T13:41:04;97944.53;;;12.26
19102;BMP280;9683;49.028;12.064;2023-04-03T13:43:34;97940.75;;;12.09
19102;BMP280;9683;49.028;12.064;2023-04-03T13:46:20;97944.75;;;11.93
19102;BMP280;9683;49.028;12.064;2023-04-03T13:48:49;97939.81;;;11.97
19102;BMP280;9683;49.028;12.064;2023-04-03T13:51:22;97943.47;;;12.02
19102;BMP280;9683;49.028;12.064;2023-04-03T13:54:00;97944.03;;;12.11
19102;BMP280;9683;49.028;12.064;2023-04-03T13:56:31;97935.78;;;12.19
19102;BMP280;9683;49.028;12.064;2023-04-03T13:59:03;97934.50;;;12.28
19102;BMP280;9683;49.028;12.064;2023-04-03T14:01:40;97933.56;;;12.40
19102;BMP280;9683;49.028;12.064;2023-04-03T14:04:14;97925.28;;;12.49
19102;BMP280;9683;49.028;12.064;2023-04-03T14:06:43;97933.25;;;12.55
19102;BMP280;9683;49.028;12.064;2023-04-03T14:09:10;97924.59;;;12.60
19102;BMP280;9683;49.028;12.064;2023-04-03T14:11:37;97941.22;;;12.62
19102;BMP280;9683;49.028;12.064;2023-04-03T14:14:12;97944.84;;;12.67
19102;BMP280;9683;49.028;12.064;2023-04-03T14:16:41;97949.13;;;12.75
19102;BMP280;9683;49.028;12.064;2023-04-03T14:19:17;97939.56;;;12.85
19102;BMP280;9683;49.028;12.064;2023-04-03T14:21:45;97935.56;;;12.95
19102;BMP280;9683;49.028;12.064;2023-04-03T14:24:12;97928.75;;;12.99
19102;BMP280;9683;49.028;12.064;2023-04-03T14:26:39;97924.97;;;13.06
19102;BMP280;9683;49.028;12.064;2023-04-03T14:29:06;97923.06;;;13.13
19102;BMP280;9683;49.028;12.064;2023-04-03T14:31:32;97934.28;;;13.22
19102;BMP280;9683;49.028;12.064;2023-04-03T14:33:59;97927.22;;;13.27
19102;BMP280;9683;49.028;12.064;2023-04-03T14:36:28;97932.38;;;13.29
19102;BMP280;9683;49.028;12.064;2023-04-03T14:39:00;97934.22;;;13.28
19102;BMP280;9683;49.028;12.064;2023-04-03T14:41:27;97930.56;;;13.23
19102;BMP280;9683;49.028;12.064;2023-04-03T14:43:54;97920.91;;;13.22